sensor_id;sensor_type;location;lat;lon;timestamp;temperature;humidity
21582;DHT22;10952;50.836;4.348;2022-07-06T00:01:51;17.50;99.90
21582;DHT22;10952;50.836;4.348;2022-07-06T00:04:20;17.40;99.90
21582;DHT22;10952;50.836;4.348;2022-07-06T00:06:46;17.40;99.90
21582;DHT22;10952;50.836;4.348;2022-07-06T00:09:12;17.40;99.90
21582;DHT22;10952;50.836;4.348;2022-07-06T00:11:37;17.20;99.90
21582;DHT22;10952;50.836;4.348;2022-07-06T00:14:04;17.10;99.90
21582;DHT22;10952;50.836;4.348;2022-07-06T00:16:29;17.00;99.90
21582;DHT22;10952;50.836;4.348;2022-07-06T00:18:57;17.00;99.90
21582;DHT22;10952;50.836;4.348;2022-07-06T00:21:23;17.00;99.90
21582;DHT22;10952;50.836;4.348;2022-07-06T00:23:54;17.20;99.90
21582;DHT22;10952;50.836;4.348;2022-07-06T00:26:20;17.20;99.90
21582;DHT22;10952;50.836;4.348;2022-07-06T00:28:47;17.30;99.90
21582;DHT22;10952;50.836;4.348;2022-07-06T00:31:24;17.20;99.90
21582;DHT22;10952;50.836;4.348;2022-07-06T00:33:49;17.20;99.90
21582;DHT22;10952;50.836;4.348;2022-07-06T00:36:16;17.20;99.90
21582;DHT22;10952;50.836;4.348;2022-07-06T00:38:43;17.30;99.90
21582;DHT22;10952;50.836;4.348;2022-07-06T00:41:13;17.30;99.90
21582;DHT22;10952;50.836;4.348;2022-07-06T00:43:56;17.30;99.90
21582;DHT22;10952;50.836;4.348;2022-07-06T00:46:31;17.30;99.90
21582;DHT22;10952;50.836;4.348;2022-07-06T00:48:58;17.20;99.90
21582;DHT22;10952;50.836;4.348;2022-07-06T00:51:30;17.30;99.90
21582;DHT22;10952;50.836;4.348;2022-07-06T00:54:00;17.20;99.90
21582;DHT22;10952;50.836;4.348;2022-07-06T00:56:30;17.10;99.90
21582;DHT22;10952;50.836;4.348;2022-07-06T00:58:57;17.10;99.90
21582;DHT22;10952;50.836;4.348;2022-07-06T01:01:24;17.00;99.90
21582;DHT22;10952;50.836;4.348;2022-07-06T01:03:51;17.00;99.90
21582;DHT22;10952;50.836;4.348;2022-07-06T01:06:23;17.10;99.90
21582;DHT22;10952;50.836;4.348;2022-07-06T01:08:50;17.10;99.90
21582;DHT22;10952;50.836;4.348;2022-07-06T01:11:17;17.00;99.90
21582;DHT22;10952;50.836;4.348;2022-07-06T01:13:44;16.90;99.90
21582;DHT22;10952;50.836;4.348;2022-07-06T01:16:11;16.70;99.90
21582;DHT22;10952;50.836;4.348;2022-07-06T01:18:40;16.70;99.90
21582;DHT22;10952;50.836;4.348;2022-07-06T01:21:08;16.80;99.90
21582;DHT22;10952;50.836;4.348;2022-07-06T01:23:39;16.90;99.90
21582;DHT22;10952;50.836;4.348;2022-07-06T01:26:05;16.90;99.90
21582;DHT22;10952;50.836;4.348;2022-07-06T01:28:31;16.90;99.90
21582;DHT22;10952;50.836;4.348;2022-07-06T01:30:59;16.90;99.90
21582;DHT22;10952;50.836;4.348;2022-07-06T01:33:27;16.80;99.90
21582;DHT22;10952;50.836;4.348;2022-07-06T01:35:56;16.80;99.90
21582;DHT22;10952;50.836;4.348;2022-07-06T01:38:22;16.80;99.90
21582;DHT22;10952;50.836;4.348;2022-07-06T01:40:48;16.70;99.90
21582;DHT22;10952;50.836;4.348;2022-07-06T01:43:14;16.60;99.90
21582;DHT22;10952;50.836;4.348;2022-07-06T01:45:41;16.60;99.90
21582;DHT22;10952;50.836;4.348;2022-07-06T01:48:07;16.70;99.90
21582;DHT22;10952;50.836;4.348;2022-07-06T01:50:33;16.70;99.90
21582;DHT22;10952;50.836;4.348;2022-07-06T01:53:02;16.70;99.90
21582;DHT22;10952;50.836;4.348;2022-07-06T01:55:28;16.70;99.90
21582;DHT22;10952;50.836;4.348;2022-07-06T01:57:54;16.50;99.90
21582;DHT22;10952;50.836;4.348;2022-07-06T02:00:21;16.40;99.90
21582;DHT22;10952;50.836;4.348;2022-07-06T02:02:49;16.20;99.90
21582;DHT22;10952;50.836;4.348;2022-07-06T02:05:15;16.20;99.90
21582;DHT22;10952;50.836;4.348;2022-07-06T02:07:42;16.10;99.90
21582;DHT22;10952;50.836;4.348;2022-07-06T02:10:08;16.10;99.90
21582;DHT22;10952;50.836;4.348;2022-07-06T02:12:34;16.20;99.90
21582;DHT22;10952;50.836;4.348;2022-07-06T02:15:00;16.20;99.90
21582;DHT22;10952;50.836;4.348;2022-07-06T02:17:27;16.20;99.90
21582;DHT22;10952;50.836;4.348;2022-07-06T02:19:52;16.10;99.90
21582;DHT22;10952;50.836;4.348;2022-07-06T02:22:19;16.10;99.90
21582;DHT22;10952;50.836;4.348;2022-07-06T02:24:46;16.10;99.90
21582;DHT22;10952;50.836;4.348;2022-07-06T02:27:11;16.20;99.90
21582;DHT22;10952;50.836;4.348;2022-07-06T02:29:37;16.30;99.90
21582;DHT22;10952;50.836;4.348;2022-07-06T02:32:03;16.30;99.90
21582;DHT22;10952;50.836;4.348;2022-07-06T02:34:28;16.30;99.90
21582;DHT22;10952;50.836;4.348;2022-07-06T02:36:55;16.20;99.90
21582;DHT22;10952;50.836;4.348;2022-07-06T02:39:21;15.90;99.90
21582;DHT22;10952;50.836;4.348;2022-07-06T02:41:47;15.90;99.90
21582;DHT22;10952;50.836;4.348;2022-07-06T02:44:16;15.90;99.90
21582;DHT22;10952;50.836;4.348;2022-07-06T02:46:42;16.00;99.90
21582;DHT22;10952;50.836;4.348;2022-07-06T02:49:07;16.00;99.90
21582;DHT22;10952;50.836;4.348;2022-07-06T02:51:39;16.10;99.90
21582;DHT22;10952;50.836;4.348;2022-07-06T02:54:05;16.00;99.90
21582;DHT22;10952;50.836;4.348;2022-07-06T02:56:30;15.90;99.90
21582;DHT22;10952;50.836;4.348;2022-07-06T02:58:58;15.80;99.90
21582;DHT22;10952;50.836;4.348;2022-07-06T03:01:25;15.80;99.90
21582;DHT22;10952;50.836;4.348;2022-07-06T03:03:51;15.70;99.90
21582;DHT22;10952;50.836;4.348;2022-07-06T03:06:16;15.80;99.90
21582;DHT22;10952;50.836;4.348;2022-07-06T03:08:42;15.70;99.90
21582;DHT22;10952;50.836;4.348;2022-07-06T03:11:08;15.70;99.90
21582;DHT22;10952;50.836;4.348;2022-07-06T03:13:34;15.80;99.90
21582;DHT22;10952;50.836;4.348;2022-07-06T03:16:01;15.60;99.90
21582;DHT22;10952;50.836;4.348;2022-07-06T03:18:27;15.60;99.90
21582;DHT22;10952;50.836;4.348;2022-07-06T03:20:53;15.60;99.90
21582;DHT22;10952;50.836;4.348;2022-07-06T03:23:18;15.60;99.90
21582;DHT22;10952;50.836;4.348;2022-07-06T03:25:44;15.70;99.90
21582;DHT22;10952;50.836;4.348;2022-07-06T03:28:10;15.80;99.90
21582;DHT22;10952;50.836;4.348;2022-07-06T03:30:37;15.80;99.90
21582;DHT22;10952;50.836;4.348;2022-07-06T03:33:03;15.80;99.90
21582;DHT22;10952;50.836;4.348;2022-07-06T03:35:29;15.80;99.90
21582;DHT22;10952;50.836;4.348;2022-07-06T03:37:56;15.90;99.90
21582;DHT22;10952;50.836;4.348;2022-07-06T03:40:22;16.00;99.90
21582;DHT22;10952;50.836;4.348;2022-07-06T03:42:48;15.80;99.90
21582;DHT22;10952;50.836;4.348;2022-07-06T03:45:15;15.70;99.90
21582;DHT22;10952;50.836;4.348;2022-07-06T03:47:41;15.70;99.90
21582;DHT22;10952;50.836;4.348;2022-07-06T03:50:07;15.70;99.90
21582;DHT22;10952;50.836;4.348;2022-07-06T03:52:34;15.60;99.90
21582;DHT22;10952;50.836;4.348;2022-07-06T03:55:00;15.60;99.90
21582;DHT22;10952;50.836;4.348;2022-07-06T03:57:26;15.70;99.90
21582;DHT22;10952;50.836;4.348;2022-07-06T03:59:52;15.70;99.90
21582;DHT22;10952;50.836;4.348;2022-07-06T04:02:17;15.60;99.90
21582;DHT22;10952;50.836;4.348;2022-07-06T04:04:43;15.60;99.90
21582;DHT22;10952;50.836;4.348;2022-07-06T04:07:09;15.70;99.90
21582;DHT22;10952;50.836;4.348;2022-07-06T04:09:34;15.60;99.90
21582;DHT22;10952;50.836;4.348;2022-07-06T04:12:00;15.50;99.90
21582;DHT22;10952;50.836;4.348;2022-07-06T04:14:26;15.60;99.90
21582;DHT22;10952;50.836;4.348;2022-07-06T04:16:52;15.60;99.90
21582;DHT22;10952;50.836;4.348;2022-07-06T04:19:18;15.50;99.90
21582;DHT22;10952;50.836;4.348;2022-07-06T04:21:44;15.60;99.90
21582;DHT22;10952;50.836;4.348;2022-07-06T04:24:09;15.80;99.90
21582;DHT22;10952;50.836;4.348;2022-07-06T04:26:35;15.80;99.90
21582;DHT22;10952;50.836;4.348;2022-07-06T04:29:01;15.90;99.90
21582;DHT22;10952;50.836;4.348;2022-07-06T04:31:26;15.90;99.90
21582;DHT22;10952;50.836;4.348;2022-07-06T04:33:52;15.90;99.90
21582;DHT22;10952;50.836;4.348;2022-07-06T04:36:19;16.10;99.90
21582;DHT22;10952;50.836;4.348;2022-07-06T04:38:44;16.20;99.90
21582;DHT22;10952;50.836;4.348;2022-07-06T04:41:13;16.20;99.90
21582;DHT22;10952;50.836;4.348;2022-07-06T04:43:38;16.00;99.90
21582;DHT22;10952;50.836;4.348;2022-07-06T04:46:04;16.00;99.90
21582;DHT22;10952;50.836;4.348;2022-07-06T04:48:31;16.00;99.90
21582;DHT22;10952;50.836;4.348;2022-07-06T04:51:01;16.00;99.90
21582;DHT22;10952;50.836;4.348;2022-07-06T04:53:27;16.00;99.90
21582;DHT22;10952;50.836;4.348;2022-07-06T04:55:56;15.90;99.90
21582;DHT22;10952;50.836;4.348;2022-07-06T04:58:23;16.00;99.90
21582;DHT22;10952;50.836;4.348;2022-07-06T05:00:50;16.10;99.90
21582;DHT22;10952;50.836;4.348;2022-07-06T05:03:19;16.10;99.90
21582;DHT22;10952;50.836;4.348;2022-07-06T05:05:47;16.00;99.90
21582;DHT22;10952;50.836;4.348;2022-07-06T05:08:16;16.00;99.90
21582;DHT22;10952;50.836;4.348;2022-07-06T05:10:45;16.10;99.90
21582;DHT22;10952;50.836;4.348;2022-07-06T05:13:11;16.10;99.90
21582;DHT22;10952;50.836;4.348;2022-07-06T05:15:37;16.20;99.90
21582;DHT22;10952;50.836;4.348;2022-07-06T05:18:04;16.30;99.90
21582;DHT22;10952;50.836;4.348;2022-07-06T05:20:30;16.10;99.90
21582;DHT22;10952;50.836;4.348;2022-07-06T05:22:57;16.00;99.90
21582;DHT22;10952;50.836;4.348;2022-07-06T05:25:24;15.90;99.90
21582;DHT22;10952;50.836;4.348;2022-07-06T05:27:59;15.90;99.90
21582;DHT22;10952;50.836;4.348;2022-07-06T05:30:26;15.90;99.90
21582;DHT22;10952;50.836;4.348;2022-07-06T05:32:51;16.00;99.90
21582;DHT22;10952;50.836;4.348;2022-07-06T05:35:17;16.10;99.90
21582;DHT22;10952;50.836;4.348;2022-07-06T05:37:43;16.10;99.90
21582;DHT22;10952;50.836;4.348;2022-07-06T05:40:09;16.20;99.90
21582;DHT22;10952;50.836;4.348;2022-07-06T05:42:35;16.20;99.90
21582;DHT22;10952;50.836;4.348;2022-07-06T05:45:01;16.20;99.90
21582;DHT22;10952;50.836;4.348;2022-07-06T05:47:29;16.40;99.90
21582;DHT22;10952;50.836;4.348;2022-07-06T05:50:13;16.40;99.90
21582;DHT22;10952;50.836;4.348;2022-07-06T05:52:41;16.60;99.90
21582;DHT22;10952;50.836;4.348;2022-07-06T05:55:09;16.70;99.90
21582;DHT22;10952;50.836;4.348;2022-07-06T05:57:35;16.90;99.90
21582;DHT22;10952;50.836;4.348;2022-07-06T06:00:03;16.90;99.90
21582;DHT22;10952;50.836;4.348;2022-07-06T06:02:39;16.90;99.90
21582;DHT22;10952;50.836;4.348;2022-07-06T06:05:08;16.90;99.90
21582;DHT22;10952;50.836;4.348;2022-07-06T06:07:37;17.00;99.90
21582;DHT22;10952;50.836;4.348;2022-07-06T06:10:05;17.30;99.90
21582;DHT22;10952;50.836;4.348;2022-07-06T06:12:31;17.40;99.90
21582;DHT22;10952;50.836;4.348;2022-07-06T06:14:57;17.60;99.90
21582;DHT22;10952;50.836;4.348;2022-07-06T06:17:23;17.60;99.90
21582;DHT22;10952;50.836;4.348;2022-07-06T06:19:48;17.60;99.90
21582;DHT22;10952;50.836;4.348;2022-07-06T06:22:14;17.50;99.90
21582;DHT22;10952;50.836;4.348;2022-07-06T06:24:40;17.70;99.90
21582;DHT22;10952;50.836;4.348;2022-07-06T06:27:06;17.90;99.90
21582;DHT22;10952;50.836;4.348;2022-07-06T06:29:32;17.80;99.90
21582;DHT22;10952;50.836;4.348;2022-07-06T06:31:58;17.90;99.90
21582;DHT22;10952;50.836;4.348;2022-07-06T06:34:23;17.90;99.90
21582;DHT22;10952;50.836;4.348;2022-07-06T06:36:49;18.00;99.90
21582;DHT22;10952;50.836;4.348;2022-07-06T06:39:15;18.00;99.90
21582;DHT22;10952;50.836;4.348;2022-07-06T06:41:41;17.90;99.90
21582;DHT22;10952;50.836;4.348;2022-07-06T06:44:06;18.20;99.90
21582;DHT22;10952;50.836;4.348;2022-07-06T06:46:32;18.40;99.90
21582;DHT22;10952;50.836;4.348;2022-07-06T06:48:58;18.60;99.90
21582;DHT22;10952;50.836;4.348;2022-07-06T06:51:24;18.50;99.90
21582;DHT22;10952;50.836;4.348;2022-07-06T06:53:49;18.60;99.90
21582;DHT22;10952;50.836;4.348;2022-07-06T06:56:15;18.70;99.90
21582;DHT22;10952;50.836;4.348;2022-07-06T06:58:41;18.80;99.90
21582;DHT22;10952;50.836;4.348;2022-07-06T07:01:07;18.90;99.90
21582;DHT22;10952;50.836;4.348;2022-07-06T07:03:32;19.10;99.90
21582;DHT22;10952;50.836;4.348;2022-07-06T07:05:58;19.50;99.90
21582;DHT22;10952;50.836;4.348;2022-07-06T07:08:24;19.60;99.90
21582;DHT22;10952;50.836;4.348;2022-07-06T07:10:49;19.60;99.90
21582;DHT22;10952;50.836;4.348;2022-07-06T07:13:15;19.80;99.90
21582;DHT22;10952;50.836;4.348;2022-07-06T07:15:41;20.10;99.90
21582;DHT22;10952;50.836;4.348;2022-07-06T07:18:06;20.10;99.90
21582;DHT22;10952;50.836;4.348;2022-07-06T07:20:32;20.10;99.90
21582;DHT22;10952;50.836;4.348;2022-07-06T07:23:01;20.10;99.90
21582;DHT22;10952;50.836;4.348;2022-07-06T07:25:27;20.30;99.90
21582;DHT22;10952;50.836;4.348;2022-07-06T07:27:53;20.10;99.90
21582;DHT22;10952;50.836;4.348;2022-07-06T07:30:20;20.00;99.90
21582;DHT22;10952;50.836;4.348;2022-07-06T07:32:46;19.90;99.90
21582;DHT22;10952;50.836;4.348;2022-07-06T07:35:12;19.90;99.90
21582;DHT22;10952;50.836;4.348;2022-07-06T07:37:38;20.00;99.90
21582;DHT22;10952;50.836;4.348;2022-07-06T07:40:05;20.10;99.90
21582;DHT22;10952;50.836;4.348;2022-07-06T07:42:31;20.50;99.90
21582;DHT22;10952;50.836;4.348;2022-07-06T07:44:58;20.60;99.90
21582;DHT22;10952;50.836;4.348;2022-07-06T07:47:25;20.70;99.90
21582;DHT22;10952;50.836;4.348;2022-07-06T07:49:50;20.60;99.90
21582;DHT22;10952;50.836;4.348;2022-07-06T07:52:17;20.60;99.90
21582;DHT22;10952;50.836;4.348;2022-07-06T07:54:46;20.70;99.90
21582;DHT22;10952;50.836;4.348;2022-07-06T07:57:14;20.70;99.90
21582;DHT22;10952;50.836;4.348;2022-07-06T07:59:40;20.50;99.90
21582;DHT22;10952;50.836;4.348;2022-07-06T08:02:07;20.50;99.90
21582;DHT22;10952;50.836;4.348;2022-07-06T08:04:33;20.60;99.90
21582;DHT22;10952;50.836;4.348;2022-07-06T08:06:59;20.70;99.90
21582;DHT22;10952;50.836;4.348;2022-07-06T08:09:25;20.70;99.90
21582;DHT22;10952;50.836;4.348;2022-07-06T08:11:50;20.70;99.90
21582;DHT22;10952;50.836;4.348;2022-07-06T08:14:16;20.60;99.90
21582;DHT22;10952;50.836;4.348;2022-07-06T08:16:42;20.90;99.90
21582;DHT22;10952;50.836;4.348;2022-07-06T08:19:08;21.10;99.90
21582;DHT22;10952;50.836;4.348;2022-07-06T08:21:35;21.20;99.90
21582;DHT22;10952;50.836;4.348;2022-07-06T08:24:01;21.10;99.90
21582;DHT22;10952;50.836;4.348;2022-07-06T08:26:29;21.10;99.90
21582;DHT22;10952;50.836;4.348;2022-07-06T08:28:56;20.90;99.90
21582;DHT22;10952;50.836;4.348;2022-07-06T08:31:22;21.10;99.90
21582;DHT22;10952;50.836;4.348;2022-07-06T08:33:48;21.00;99.90
21582;DHT22;10952;50.836;4.348;2022-07-06T08:36:15;21.00;99.90
21582;DHT22;10952;50.836;4.348;2022-07-06T08:38:40;21.20;99.90
21582;DHT22;10952;50.836;4.348;2022-07-06T08:41:06;21.10;99.90
21582;DHT22;10952;50.836;4.348;2022-07-06T08:43:34;20.80;99.90
21582;DHT22;10952;50.836;4.348;2022-07-06T08:46:01;21.00;99.90
21582;DHT22;10952;50.836;4.348;2022-07-06T08:48:27;21.20;99.90
21582;DHT22;10952;50.836;4.348;2022-07-06T08:50:55;21.40;99.90
21582;DHT22;10952;50.836;4.348;2022-07-06T08:53:21;21.70;99.90
21582;DHT22;10952;50.836;4.348;2022-07-06T08:55:49;21.90;99.90
21582;DHT22;10952;50.836;4.348;2022-07-06T08:58:18;21.80;99.90
21582;DHT22;10952;50.836;4.348;2022-07-06T09:00:44;21.60;99.90
21582;DHT22;10952;50.836;4.348;2022-07-06T09:03:11;21.70;99.90
21582;DHT22;10952;50.836;4.348;2022-07-06T09:05:39;21.90;99.90
21582;DHT22;10952;50.836;4.348;2022-07-06T09:08:05;21.80;99.90
21582;DHT22;10952;50.836;4.348;2022-07-06T09:10:31;21.40;99.90
21582;DHT22;10952;50.836;4.348;2022-07-06T09:13:04;21.60;99.90
21582;DHT22;10952;50.836;4.348;2022-07-06T09:15:31;21.80;99.90
21582;DHT22;10952;50.836;4.348;2022-07-06T09:17:57;22.00;99.90
21582;DHT22;10952;50.836;4.348;2022-07-06T09:20:32;22.20;99.90
21582;DHT22;10952;50.836;4.348;2022-07-06T09:23:03;22.30;99.90
21582;DHT22;10952;50.836;4.348;2022-07-06T09:25:31;22.60;99.90
21582;DHT22;10952;50.836;4.348;2022-07-06T09:27:57;22.60;99.90
21582;DHT22;10952;50.836;4.348;2022-07-06T09:30:24;22.50;99.90
21582;DHT22;10952;50.836;4.348;2022-07-06T09:32:57;22.70;99.90
21582;DHT22;10952;50.836;4.348;2022-07-06T09:35:45;23.10;99.90
21582;DHT22;10952;50.836;4.348;2022-07-06T09:38:15;23.10;99.90
21582;DHT22;10952;50.836;4.348;2022-07-06T09:40:46;22.80;99.90
21582;DHT22;10952;50.836;4.348;2022-07-06T09:43:23;23.10;99.90
21582;DHT22;10952;50.836;4.348;2022-07-06T09:45:52;23.40;99.90
21582;DHT22;10952;50.836;4.348;2022-07-06T09:48:23;23.70;99.60
21582;DHT22;10952;50.836;4.348;2022-07-06T09:50:52;23.50;99.80
21582;DHT22;10952;50.836;4.348;2022-07-06T09:53:19;23.60;99.60
21582;DHT22;10952;50.836;4.348;2022-07-06T09:55:48;23.60;99.40
21582;DHT22;10952;50.836;4.348;2022-07-06T09:58:18;23.30;99.60
21582;DHT22;10952;50.836;4.348;2022-07-06T10:00:50;22.90;99.90
21582;DHT22;10952;50.836;4.348;2022-07-06T10:03:18;22.80;99.90
21582;DHT22;10952;50.836;4.348;2022-07-06T10:05:47;23.00;99.90
21582;DHT22;10952;50.836;4.348;2022-07-06T10:08:15;23.00;99.90
21582;DHT22;10952;50.836;4.348;2022-07-06T10:10:43;22.80;99.90
21582;DHT22;10952;50.836;4.348;2022-07-06T10:13:19;23.20;99.90
21582;DHT22;10952;50.836;4.348;2022-07-06T10:15:47;23.80;99.50
21582;DHT22;10952;50.836;4.348;2022-07-06T10:18:19;24.10;99.20
21582;DHT22;10952;50.836;4.348;2022-07-06T10:20:51;24.60;98.60
21582;DHT22;10952;50.836;4.348;2022-07-06T10:23:17;25.30;97.70
21582;DHT22;10952;50.836;4.348;2022-07-06T10:25:44;25.20;97.50
21582;DHT22;10952;50.836;4.348;2022-07-06T10:28:10;25.50;97.30
21582;DHT22;10952;50.836;4.348;2022-07-06T10:30:41;25.30;97.00
21582;DHT22;10952;50.836;4.348;2022-07-06T10:33:14;24.90;97.50
21582;DHT22;10952;50.836;4.348;2022-07-06T10:35:41;24.80;97.60
21582;DHT22;10952;50.836;4.348;2022-07-06T10:38:10;25.20;97.50
21582;DHT22;10952;50.836;4.348;2022-07-06T10:40:40;25.00;97.30
21582;DHT22;10952;50.836;4.348;2022-07-06T10:43:45;24.70;97.90
21582;DHT22;10952;50.836;4.348;2022-07-06T10:46:15;24.40;97.90
21582;DHT22;10952;50.836;4.348;2022-07-06T10:48:45;24.10;98.40
21582;DHT22;10952;50.836;4.348;2022-07-06T10:51:22;24.20;97.70
21582;DHT22;10952;50.836;4.348;2022-07-06T10:53:55;24.30;97.80
21582;DHT22;10952;50.836;4.348;2022-07-06T10:56:40;24.60;97.70
21582;DHT22;10952;50.836;4.348;2022-07-06T10:59:09;25.20;97.20
21582;DHT22;10952;50.836;4.348;2022-07-06T11:01:40;26.40;96.00
21582;DHT22;10952;50.836;4.348;2022-07-06T11:04:08;27.50;94.70
21582;DHT22;10952;50.836;4.348;2022-07-06T11:06:38;28.60;93.10
21582;DHT22;10952;50.836;4.348;2022-07-06T11:09:11;28.60;92.50
21582;DHT22;10952;50.836;4.348;2022-07-06T11:11:39;29.50;90.90
21582;DHT22;10952;50.836;4.348;2022-07-06T11:14:09;29.70;90.00
21582;DHT22;10952;50.836;4.348;2022-07-06T11:19:16;29.70;86.90
21582;DHT22;10952;50.836;4.348;2022-07-06T11:21:46;29.20;85.90
21582;DHT22;10952;50.836;4.348;2022-07-06T11:24:15;28.20;87.40
21582;DHT22;10952;50.836;4.348;2022-07-06T11:26:49;27.30;89.10
21582;DHT22;10952;50.836;4.348;2022-07-06T11:29:18;26.90;90.50
21582;DHT22;10952;50.836;4.348;2022-07-06T11:31:48;26.50;90.90
21582;DHT22;10952;50.836;4.348;2022-07-06T11:34:28;26.50;90.90
21582;DHT22;10952;50.836;4.348;2022-07-06T11:37:06;26.60;91.00
21582;DHT22;10952;50.836;4.348;2022-07-06T11:39:37;27.50;90.50
21582;DHT22;10952;50.836;4.348;2022-07-06T11:42:06;27.90;90.30
21582;DHT22;10952;50.836;4.348;2022-07-06T11:44:34;27.70;89.70
21582;DHT22;10952;50.836;4.348;2022-07-06T11:47:01;27.80;89.30
21582;DHT22;10952;50.836;4.348;2022-07-06T11:49:29;27.70;89.50
21582;DHT22;10952;50.836;4.348;2022-07-06T11:51:55;27.80;89.10
21582;DHT22;10952;50.836;4.348;2022-07-06T11:54:22;28.10;89.40
21582;DHT22;10952;50.836;4.348;2022-07-06T11:56:51;27.90;88.30
21582;DHT22;10952;50.836;4.348;2022-07-06T11:59:24;27.40;90.00
21582;DHT22;10952;50.836;4.348;2022-07-06T12:02:04;27.40;90.00
21582;DHT22;10952;50.836;4.348;2022-07-06T12:04:32;27.30;90.30
21582;DHT22;10952;50.836;4.348;2022-07-06T12:07:18;27.20;90.50
21582;DHT22;10952;50.836;4.348;2022-07-06T12:09:47;27.90;89.80
21582;DHT22;10952;50.836;4.348;2022-07-06T12:12:13;27.40;90.70
21582;DHT22;10952;50.836;4.348;2022-07-06T12:14:41;27.30;90.50
21582;DHT22;10952;50.836;4.348;2022-07-06T12:17:09;27.00;91.00
21582;DHT22;10952;50.836;4.348;2022-07-06T12:19:36;27.10;90.90
21582;DHT22;10952;50.836;4.348;2022-07-06T12:22:02;26.30;91.30
21582;DHT22;10952;50.836;4.348;2022-07-06T12:24:30;26.30;91.70
21582;DHT22;10952;50.836;4.348;2022-07-06T12:26:59;26.50;91.70
21582;DHT22;10952;50.836;4.348;2022-07-06T12:29:34;26.20;92.00
21582;DHT22;10952;50.836;4.348;2022-07-06T12:32:00;25.80;92.40
21582;DHT22;10952;50.836;4.348;2022-07-06T12:34:29;25.50;92.80
21582;DHT22;10952;50.836;4.348;2022-07-06T12:37:07;25.40;92.90
21582;DHT22;10952;50.836;4.348;2022-07-06T12:39:45;25.40;93.10
21582;DHT22;10952;50.836;4.348;2022-07-06T12:42:14;25.60;93.10
21582;DHT22;10952;50.836;4.348;2022-07-06T12:44:45;25.70;92.90
21582;DHT22;10952;50.836;4.348;2022-07-06T12:47:12;25.90;92.70
21582;DHT22;10952;50.836;4.348;2022-07-06T12:49:39;25.80;92.20
21582;DHT22;10952;50.836;4.348;2022-07-06T12:52:10;25.60;92.40
21582;DHT22;10952;50.836;4.348;2022-07-06T12:57:11;25.70;92.60
21582;DHT22;10952;50.836;4.348;2022-07-06T13:02:29;25.10;94.00
21582;DHT22;10952;50.836;4.348;2022-07-06T13:05:03;24.60;94.40
21582;DHT22;10952;50.836;4.348;2022-07-06T13:07:31;24.70;94.60
21582;DHT22;10952;50.836;4.348;2022-07-06T13:09:58;24.70;94.10
21582;DHT22;10952;50.836;4.348;2022-07-06T13:12:25;24.70;93.50
21582;DHT22;10952;50.836;4.348;2022-07-06T13:14:51;24.40;94.00
21582;DHT22;10952;50.836;4.348;2022-07-06T13:17:17;24.20;94.80
21582;DHT22;10952;50.836;4.348;2022-07-06T13:19:43;24.10;95.00
21582;DHT22;10952;50.836;4.348;2022-07-06T13:22:09;24.30;94.90
21582;DHT22;10952;50.836;4.348;2022-07-06T13:24:35;24.50;94.80
21582;DHT22;10952;50.836;4.348;2022-07-06T13:27:00;24.50;94.60
21582;DHT22;10952;50.836;4.348;2022-07-06T13:29:26;24.90;94.00
21582;DHT22;10952;50.836;4.348;2022-07-06T13:31:52;24.90;93.80
21582;DHT22;10952;50.836;4.348;2022-07-06T13:34:18;24.90;93.90
21582;DHT22;10952;50.836;4.348;2022-07-06T13:36:44;25.20;93.40
21582;DHT22;10952;50.836;4.348;2022-07-06T13:39:09;25.40;93.40
21582;DHT22;10952;50.836;4.348;2022-07-06T13:41:35;25.30;93.60
21582;DHT22;10952;50.836;4.348;2022-07-06T13:44:02;25.10;94.00
21582;DHT22;10952;50.836;4.348;2022-07-06T13:46:28;25.30;93.70
21582;DHT22;10952;50.836;4.348;2022-07-06T13:48:54;25.10;93.80
21582;DHT22;10952;50.836;4.348;2022-07-06T13:51:24;24.70;94.70
21582;DHT22;10952;50.836;4.348;2022-07-06T13:53:55;24.70;94.60
21582;DHT22;10952;50.836;4.348;2022-07-06T13:56:23;24.90;94.30
21582;DHT22;10952;50.836;4.348;2022-07-06T13:58:48;25.10;94.10
21582;DHT22;10952;50.836;4.348;2022-07-06T14:01:14;25.20;93.90
21582;DHT22;10952;50.836;4.348;2022-07-06T14:03:41;25.30;93.80
21582;DHT22;10952;50.836;4.348;2022-07-06T14:06:09;25.20;93.70
21582;DHT22;10952;50.836;4.348;2022-07-06T14:08:36;25.30;93.80
21582;DHT22;10952;50.836;4.348;2022-07-06T14:11:05;25.10;93.70
21582;DHT22;10952;50.836;4.348;2022-07-06T14:13:32;24.70;94.20
21582;DHT22;10952;50.836;4.348;2022-07-06T14:15:59;24.60;94.50
21582;DHT22;10952;50.836;4.348;2022-07-06T14:18:31;24.40;94.50
21582;DHT22;10952;50.836;4.348;2022-07-06T14:20:56;24.50;94.40
21582;DHT22;10952;50.836;4.348;2022-07-06T14:23:24;24.60;94.40
21582;DHT22;10952;50.836;4.348;2022-07-06T14:25:51;24.90;94.30
21582;DHT22;10952;50.836;4.348;2022-07-06T14:28:19;25.30;93.90
21582;DHT22;10952;50.836;4.348;2022-07-06T14:30:47;25.50;93.50
21582;DHT22;10952;50.836;4.348;2022-07-06T14:33:14;25.60;93.20
21582;DHT22;10952;50.836;4.348;2022-07-06T14:35:45;25.50;93.30
21582;DHT22;10952;50.836;4.348;2022-07-06T14:38:14;25.20;93.70
21582;DHT22;10952;50.836;4.348;2022-07-06T14:40:40;24.90;94.10
21582;DHT22;10952;50.836;4.348;2022-07-06T14:43:07;24.70;94.60
21582;DHT22;10952;50.836;4.348;2022-07-06T14:45:33;24.80;94.50
21582;DHT22;10952;50.836;4.348;2022-07-06T14:48:00;24.80;94.60
21582;DHT22;10952;50.836;4.348;2022-07-06T14:50:29;24.80;94.50
21582;DHT22;10952;50.836;4.348;2022-07-06T14:53:00;24.70;94.60
21582;DHT22;10952;50.836;4.348;2022-07-06T14:55:29;24.90;94.60
21582;DHT22;10952;50.836;4.348;2022-07-06T14:58:01;25.10;94.30
21582;DHT22;10952;50.836;4.348;2022-07-06T15:00:28;25.30;94.10
21582;DHT22;10952;50.836;4.348;2022-07-06T15:02:55;25.50;94.00
21582;DHT22;10952;50.836;4.348;2022-07-06T15:05:21;25.50;93.80
21582;DHT22;10952;50.836;4.348;2022-07-06T15:07:48;25.70;93.80
21582;DHT22;10952;50.836;4.348;2022-07-06T15:10:14;25.30;93.80
21582;DHT22;10952;50.836;4.348;2022-07-06T15:12:39;25.40;94.00
21582;DHT22;10952;50.836;4.348;2022-07-06T15:15:05;25.30;94.10
21582;DHT22;10952;50.836;4.348;2022-07-06T15:17:31;25.30;94.10
21582;DHT22;10952;50.836;4.348;2022-07-06T15:19:59;25.40;93.90
21582;DHT22;10952;50.836;4.348;2022-07-06T15:22:28;25.50;94.00
21582;DHT22;10952;50.836;4.348;2022-07-06T15:24:53;25.60;93.70
21582;DHT22;10952;50.836;4.348;2022-07-06T15:27:19;25.20;93.90
21582;DHT22;10952;50.836;4.348;2022-07-06T15:29:46;24.80;94.50
21582;DHT22;10952;50.836;4.348;2022-07-06T15:32:11;24.50;94.80
21582;DHT22;10952;50.836;4.348;2022-07-06T15:34:37;24.50;94.90
21582;DHT22;10952;50.836;4.348;2022-07-06T15:37:03;24.60;94.90
21582;DHT22;10952;50.836;4.348;2022-07-06T15:39:29;24.70;94.60
21582;DHT22;10952;50.836;4.348;2022-07-06T15:41:54;24.70;94.70